Stations météo

réclame
Mon MeteoGroup
Kahler Asten, Allemagne (10427): Température de l'air & dewpoint: 08.08.2018 19:00:00 - 14.08.2018 19:00:00 (CEST)Kahler Asten, Allemagne (10427): Température de l'air 5cm & Température de l'air -5cm: 08.08.2018 19:00:00 - 14.08.2018 19:00:00 (CEST)Kahler Asten, Allemagne (10427): Température de l'air -20cm & Température de l'air -100cm: 08.08.2018 19:00:00 - 14.08.2018 19:00:00 (CEST)Kahler Asten, Allemagne (10427): Vitesse du vent & gusts: 08.08.2018 19:00:00 - 14.08.2018 19:00:00 (CEST)Kahler Asten, Allemagne (10427): Direction du vent: 08.08.2018 19:00:00 - 14.08.2018 19:00:00 (CEST)Kahler Asten, Allemagne (10427): visibility: 08.08.2018 19:00:00 - 14.08.2018 19:00:00 (CEST)Kahler Asten, Allemagne (10427): Ensoleillement: 08.08.2018 19:00:00 - 14.08.2018 19:00:00 (CEST)Kahler Asten, Allemagne (10427): Quantités de précipitations: 08.08.2018 19:00:00 - 14.08.2018 19:00:00 (CEST)
Date & Time tt [°C] td [°C] tt 5cm [°C] tt -5cm [°C] tt -20cm [°C] tt -100cm [°C] ff [km/h] ff [knt] fx [km/h] fx [knt] dd vv [km] sd [min] rr [mm]
14.08.2018 19:00:00 16,7 11,3 18,3 16,5 16,2 15,8 20 11 40 21 WNW 34 21 0,0
14.08.2018 18:00:00 15,9 11,2 16,3 17,1 16,0 15,8 21 12 40 22 W 36 1 0,0
14.08.2018 17:00:00 16,2 11,2 18,1 18,3 15,7 15,8 31 17 49 26 W 40 19 0,0
14.08.2018 16:00:00 16,9 11,9 20,3 19,7 15,3 15,8 28 15 50 27 W 26 37 0,0
14.08.2018 15:00:00 15,5 12,5 19,1 18,9 15,0 15,8 27 15 49 26 W 15 21 0,0
14.08.2018 14:00:00 14,0 12,5 15,6 16,5 14,8 15,8 29 16 49 26 W 10 2 0,0
14.08.2018 13:00:00 13,2 12,7 13,9 15,7 14,7 15,8 28 15 50 27 W 6 2 0,0
14.08.2018 12:00:00 12,7 12,4 14,0 14,3 14,7 15,9 38 21 54 29 W 3,2 1 0,2
14.08.2018 11:00:00 12,5 12,3 12,7 14,0 14,6 15,9 25 13 47 25 WSW 0,1 0 0,5
14.08.2018 10:00:00 12,4 12,2 12,5 13,7 14,6 15,9 23 12 37 20 WSW 0,1 0 0,8
14.08.2018 09:00:00 12,3 12,1 12,4 13,5 14,7 15,9 28 15 42 23 W 0,1 0 0,1
14.08.2018 08:00:00 12,2 12,0 12,3 13,1 14,7 15,9 24 13 40 22 WSW 0,1 0 0,1
14.08.2018 07:00:00 12,0 11,8 12,1 13,0 14,8 15,9 27 15 43 23 W 0,1 0 0,0
14.08.2018 06:00:00 12,0 11,8 12,0 13,0 14,9 15,9 23 12 40 21 WSW 0,1 0 0,0
14.08.2018 05:00:00 11,9 11,6 11,9 13,0 15,0 15,9 29 16 48 26 W 0,1 0 0,0
14.08.2018 04:00:00 11,9 11,7 11,9 13,1 15,1 15,9 28 15 41 22 WSW 0,1 0 0,0
14.08.2018 03:00:00 12,0 11,8 12,0 13,2 15,2 15,9 25 14 42 23 WSW 0,1 0 0,0
14.08.2018 02:00:00 12,1 11,9 12,1 13,2 15,3 15,9 22 12 39 21 WSW 0,1 0 0,0
14.08.2018 01:00:00 12,2 12,0 12,1 13,1 15,5 15,9 23 12 32 18 WSW 0,2 0 0,0
14.08.2018 00:00:00 12,0 11,7 11,7 12,8 15,7 16,0 24 13 37 20 WSW 0,5 0 0,0
13.08.2018 23:00:00 12,2 11,8 11,9 13,0 16,0 16,0 21 11 33 18 W 6 0 0,0
13.08.2018 22:00:00 12,0 11,4 11,2 13,6 16,2 16,0 19 10 33 18 WSW 14 0 0,2
13.08.2018 21:00:00 13,2 12,7 13,1 14,8 16,2 16,0 13 7 26 14 W 5 0 0,2
13.08.2018 20:00:00 14,0 13,2 13,5 16,3 16,2 16,0 18 10 42 23 WSW 13 3 0,0
13.08.2018 19:00:00 14,5 13,4 14,8 16,8 16,1 16,0 24 13 41 22 W 23 21 0,0
13.08.2018 18:00:00 14,5 14,0 15,4 16,7 16,1 16,0 23 12 48 26 WSW 13 2 5,2
13.08.2018 17:00:00 14,5 13,9 14,5 16,2 16,0 16,0 25 13 40 22 S 7 0 0,0
13.08.2018 16:00:00 13,9 13,5 14,5 15,8 16,0 16,0 26 14 41 22 SSW 1,2 0 0,2
13.08.2018 15:00:00 13,6 13,4 13,8 15,6 16,0 16,0 27 15 44 24 SSW 0,1 0 0,2
13.08.2018 14:00:00 13,8 13,3 14,5 16,7 15,9 16,0 27 15 41 22 S 8 0 0,1
13.08.2018 13:00:00 13,8 13,0 14,3 16,4 15,8 16,0 22 12 44 24 SSW 36 0 0,0
13.08.2018 12:00:00 13,6 12,9 13,8 15,5 15,7 16,0 23 12 39 21 SSW 16 0 0,6
13.08.2018 11:00:00 13,6 12,9 13,9 15,1 15,8 16,1 24 13 35 19 S 29 0 0,5
13.08.2018 10:00:00 13,4 12,3 13,0 14,1 15,8 16,1 23 12 46 25 S 14 0 4,1
13.08.2018 09:00:00 16,1 8,5 13,6 15,1 15,8 16,1 26 14 42 23 WSW 8 0 0,0
13.08.2018 08:00:00 18,0 6,8 17,5 14,9 15,9 16,1 20 11 31 17 S 70 39 0,0
13.08.2018 07:00:00 17,0 5,9 15,7 13,2 16,1 16,1 23 13 29 16 S 70 0 0,0
13.08.2018 06:00:00 16,6 5,5 14,0 13,3 16,3 16,1 24 13 36 20 S 70 0 0,0
13.08.2018 05:00:00 17,4 5,7 15,7 13,6 16,5 16,1 29 15 36 19 SSW 70 0 0,0
13.08.2018 04:00:00 17,3 6,1 15,5 13,7 16,8 16,1 23 13 32 18 SSW 70 0 0,0
13.08.2018 03:00:00 17,5 5,8 15,4 14,0 17,1 16,1 25 14 36 19 SSW 70 0 0,0
13.08.2018 02:00:00 17,1 6,1 15,1 14,3 17,4 16,2 25 13 36 19 SSW 70 0 0,0
13.08.2018 01:00:00 17,7 5,8 15,7 14,8 17,7 16,2 27 15 35 19 SSW 70 0 0,0
13.08.2018 00:00:00 17,7 5,1 15,9 15,3 18,1 16,2 26 14 31 17 SSW 70 0 0,0
12.08.2018 23:00:00 17,8 4,8 15,7 16,0 18,4 16,2 22 12 27 15 S 70 0 0,0
12.08.2018 22:00:00 17,7 4,5 15,4 17,0 18,7 16,2 18 10 22 12 S 70 0 0,0
12.08.2018 21:00:00 18,2 3,8 16,2 18,3 18,9 16,2 14 8 18 10 SSW 70 0 0,0
12.08.2018 20:00:00 19,3 3,9 17,8 20,2 19,0 16,3 13 7 27 15 S 70 13 0,0
12.08.2018 19:00:00 20,7 3,1 20,8 21,9 18,9 16,3 16 9 26 14 S 70 58 0,0
12.08.2018 18:00:00 21,4 1,9 23,8 23,2 18,6 16,3 21 11 28 15 SSW 31 60 0,0
12.08.2018 17:00:00 21,7 3,0 24,7 23,9 18,1 16,3 15 8 30 16 SSW 38 60 0,0
12.08.2018 16:00:00 21,6 4,7 25,9 25,7 17,5 16,3 18 10 30 16 S 35 60 0,0
12.08.2018 15:00:00 20,7 3,2 24,0 26,6 16,7 16,3 14 8 32 17 SW 41 60 0,0
12.08.2018 14:00:00 20,2 3,7 24,6 26,2 15,9 16,3 16 8 32 17 SSW 27 60 0,0
12.08.2018 13:00:00 19,3 4,4 23,6 24,6 15,1 16,4 16 8 28 15 S 40 60 0,0
12.08.2018 12:00:00 17,7 5,0 22,1 22,3 14,4 16,4 11 6 26 14 SW 34 60 0,0
12.08.2018 11:00:00 16,6 5,1 20,4 19,6 13,9 16,4 16 9 31 17 SW 35 60 0,0
12.08.2018 10:00:00 14,6 4,0 17,2 16,0 13,7 16,4 20 11 32 17 SSW 29 56 0,0
12.08.2018 09:00:00 13,6 4,8 14,1 13,2 13,6 16,4 13 7 24 13 SSW 70 57 0,0
12.08.2018 08:00:00 12,4 3,7 12,9 10,7 13,7 16,4 16 9 27 14 S 61 58 0,0
12.08.2018 07:00:00 10,8 3,5 8,7 8,9 13,9 16,5 18 10 24 13 S 70 0 0,0
12.08.2018 06:00:00 10,3 3,5 6,5 9,0 14,2 16,5 17 9 23 12 S 65 0 0,0
12.08.2018 05:00:00 10,7 3,5 6,4 9,3 14,5 16,5 14 8 20 11 S 70 0 0,0
12.08.2018 04:00:00 10,8 3,5 7,7 9,6 14,8 16,5 14 8 19 10 SSW 64 0 0,0
12.08.2018 03:00:00 11,3 3,3 7,5 9,9 15,1 16,5 14 8 16 9 S 52 0 0,0
12.08.2018 02:00:00 11,2 3,5 4,3 10,2 15,4 16,5 8 4 9 5 SW 47 0 0,0
12.08.2018 01:00:00 11,0 3,6 4,4 10,7 15,8 16,6 8 4 9 5 W 46 0 0,0
12.08.2018 00:00:00 11,0 3,5 5,7 11,2 16,1 16,6 10 6 19 10 NW 53 0 0,0
11.08.2018 23:00:00 11,6 3,6 9,0 11,8 16,5 16,6 17 9 22 12 WNW 70 0 0,0
11.08.2018 22:00:00 11,7 3,6 8,7 12,7 16,8 16,6 16 9 20 11 WNW 70 0 0,0
11.08.2018 21:00:00 12,7 3,6 10,3 13,9 17,0 16,6 14 7 26 14 W 70 34 0,0
11.08.2018 20:00:00 14,3 3,8 13,5 15,5 17,1 16,6 18 10 34 18 W 62 59 0,0
11.08.2018 19:00:00 15,3 3,7 16,7 17,2 17,1 16,7 20 11 36 19 W 31 42 0,0
11.08.2018 18:00:00 16,2 3,6 19,4 18,4 16,9 16,7 22 12 38 20 WSW 32 50 0,0
11.08.2018 17:00:00 15,7 3,4 18,9 18,9 16,6 16,7 19 10 44 24 WSW 30 51 0,0
11.08.2018 16:00:00 15,7 3,9 19,4 20,4 16,2 16,7 23 12 45 24 W 50 53 0,0
11.08.2018 15:00:00 15,6 4,3 20,0 21,0 15,7 16,7 28 15 48 26 W 31 45 0,0
11.08.2018 14:00:00 14,6 3,9 17,8 20,4 15,2 16,7 25 14 47 25 WSW 44 48 0,0
11.08.2018 13:00:00 14,1 5,5 18,1 19,5 14,8 16,7 23 12 45 25 W 34 44 0,0
11.08.2018 12:00:00 13,0 5,4 16,1 18,2 14,4 16,8 35 19 54 29 W 18 50 0,0
11.08.2018 11:00:00 11,0 7,4 11,7 15,4 14,2 16,8 26 14 50 27 W 29 28 0,0
11.08.2018 10:00:00 9,8 8,0 10,8 12,8 14,2 16,8 29 16 41 22 W 15 4 0,0
11.08.2018 09:00:00 8,7 8,2 9,3 11,6 14,2 16,8 25 13 40 21 W 6 5 0,0
11.08.2018 08:00:00 8,6 7,9 8,8 11,0 14,3 16,8 24 13 37 20 W 13 19 0,0
11.08.2018 07:00:00 8,2 7,7 8,0 10,2 14,5 16,8 19 11 42 23 WSW 5 0 1,2
11.08.2018 06:00:00 10,4 6,0 9,6 10,1 14,7 16,8 23 12 38 21 WSW 70 0 0,0
11.08.2018 05:00:00 10,9 5,6 10,0 9,8 15,0 16,8 24 13 45 24 WSW 70 0 0,0
11.08.2018 04:00:00 10,8 5,2 9,5 9,7 15,3 16,9 27 14 40 22 SW 70 0 0,0
11.08.2018 03:00:00 11,2 5,0 10,0 10,0 15,7 16,9 26 14 41 22 SW 70 0 0,0
11.08.2018 02:00:00 11,5 4,7 10,1 10,2 16,1 16,9 26 14 39 21 SW 70 0 0,0
11.08.2018 01:00:00 11,7 3,7 10,0 10,5 16,5 16,9 27 15 39 21 SW 70 0 0,0
11.08.2018 00:00:00 11,9 3,3 10,1 11,2 16,9 16,9 21 12 35 19 SW 70 0 0,0
10.08.2018 23:00:00 12,4 3,1 10,7 12,0 17,4 16,9 23 13 30 16 SW 70 0 0,0
10.08.2018 22:00:00 13,2 3,3 11,3 13,1 17,8 16,9 21 12 29 16 SW 70 0 0,0
10.08.2018 21:00:00 13,7 3,9 11,7 14,4 18,1 16,9 16 9 26 14 SW 70 17 0,0
10.08.2018 20:00:00 15,2 3,8 14,7 16,0 18,3 17,0 18 10 32 18 SW 70 5 0,0
10.08.2018 19:00:00 16,2 4,6 17,0 17,2 18,4 17,0 15 8 37 20 WSW 70 13 0,0
10.08.2018 18:00:00 16,8 4,4 19,3 18,5 18,5 17,0 22 12 37 20 SW 62 30 0,0
10.08.2018 17:00:00 15,7 3,1 16,4 18,9 18,3 17,0 23 12 42 23 SW 70 17 0,0
10.08.2018 16:00:00 16,2 3,0 16,9 20,7 18,1 17,0 26 14 45 25 SW 63 39 0,0
10.08.2018 15:00:00 15,3 4,6 17,3 20,8 17,7 17,0 24 13 48 26 W 68 32 0,0
10.08.2018 14:00:00 15,4 4,7 17,7 22,3 17,2 17,0 25 13 39 21 WSW 53 40 0,0
10.08.2018 13:00:00 14,4 5,8 15,4 21,8 16,7 17,0 23 12 35 19 SW 40 46 0,0
10.08.2018 12:00:00 13,5 7,0 16,7 18,8 16,3 17,0 22 12 36 19 WSW 48 28 0,0
10.08.2018 11:00:00 12,0 7,8 14,1 17,8 16,1 17,0 23 12 35 19 WSW 34 32 0,0
10.08.2018 10:00:00 10,3 8,7 13,4 15,6 16,0 17,1 16 8 35 19 SW 37 20 0,0
10.08.2018 09:00:00 8,8 7,9 9,2 12,5 16,2 17,1 22 12 42 23 WSW 11 0 0,0
10.08.2018 08:00:00 8,4 8,1 8,8 11,9 16,5 17,1 29 16 41 22 W 4,2 0 0,0
10.08.2018 07:00:00 8,3 8,0 8,5 11,9 16,9 17,1 25 13 46 25 W 0,2 0 0,0
10.08.2018 06:00:00 8,7 8,3 8,8 12,3 17,2 17,1 32 17 48 26 W 0,8 0 0,0
10.08.2018 05:00:00 9,3 8,9 9,3 12,8 17,6 17,1 32 18 56 30 W 5 0 2,0
10.08.2018 04:00:00 10,5 9,9 10,4 13,4 17,9 17,1 22 12 53 29 WSW 2,3 0 0,0
10.08.2018 03:00:00 11,1 9,3 11,0 13,6 18,3 17,1 34 18 65 35 WSW 50 0 0,0
10.08.2018 02:00:00 11,5 9,3 11,4 14,2 18,6 17,1 42 23 80 43 WSW 64 0 0,0
10.08.2018 01:00:00 13,6 11,5 13,4 15,5 18,9 17,1 29 16 59 32 WSW 47 0 0,0
10.08.2018 00:00:00 14,5 12,7 14,3 16,1 19,2 17,2 34 18 56 30 WSW 48 0 0,0
09.08.2018 23:00:00 15,1 13,4 14,9 16,5 19,5 17,2 35 19 66 35 WSW 56 0 0,0
09.08.2018 22:00:00 15,7 14,1 15,3 17,3 19,8 17,2 40 22 69 37 SSW 47 0 0,0
09.08.2018 21:00:00 16,0 14,8 15,7 17,9 20,0 17,2 38 21 58 32 SSW 28 10 0,0
09.08.2018 20:00:00 17,0 14,8 17,2 18,8 20,2 17,2 34 18 57 31 SW 41 44 0,0
09.08.2018 19:00:00 16,7 15,5 16,9 19,5 20,4 17,2 31 17 54 29 SSW 26 10 0,0
09.08.2018 18:00:00 16,6 14,2 16,4 18,8 20,7 17,2 36 19 71 38 SSW 40 0 1,8
09.08.2018 17:00:00 15,7 14,4 15,1 19,7 20,8 17,2 45 25 103 56 SW 6 0 2,0
09.08.2018 16:00:00 24,9 13,3 24,5 23,1 20,6 17,2 32 18 53 28 S 43 3 0,0
09.08.2018 15:00:00 26,0 14,0 28,0 26,2 20,1 17,2 32 18 67 36 SSE 45 55 0,0
09.08.2018 14:00:00 24,8 14,6 27,9 25,7 19,6 17,2 29 16 48 26 SE 22 46 0,0
09.08.2018 13:00:00 24,6 14,4 27,1 25,3 19,0 17,2 27 14 49 26 SSE 21 58 0,0
09.08.2018 12:00:00 22,5 14,2 25,2 23,2 18,5 17,2 24 13 39 21 SE 24 35 0,0
09.08.2018 11:00:00 20,6 13,9 23,4 22,1 18,1 17,2 19 10 29 16 ESE 18 23 0,0
09.08.2018 10:00:00 18,3 14,0 19,8 19,4 17,9 17,3 11 6 24 13 E 17 8 0,0
09.08.2018 09:00:00 17,3 13,6 18,4 18,2 17,8 17,3 18 10 33 18 E 13 43 0,0
09.08.2018 08:00:00 15,9 12,7 17,1 15,3 17,9 17,3 19 11 30 16 E 14 5 0,0
09.08.2018 07:00:00 15,0 12,1 14,0 14,3 18,1 17,3 19 11 27 14 E 11 0 0,0
09.08.2018 06:00:00 14,8 11,8 13,5 14,2 18,4 17,3 19 10 23 12 E 12 0 0,0
09.08.2018 05:00:00 14,7 11,7 12,2 14,3 18,7 17,3 14 7 17 9 ENE 14 0 0,0
09.08.2018 04:00:00 14,9 11,7 12,2 14,6 19,1 17,3 14 7 16 8 ENE 16 0 0,0
09.08.2018 03:00:00 14,8 11,3 12,1 15,1 19,4 17,3 12 6 16 8 NNE 18 0 0,0
09.08.2018 02:00:00 15,0 12,0 14,3 15,6 19,8 17,3 13 7 16 9 N 21 0 0,0
09.08.2018 01:00:00 15,1 12,2 13,1 16,0 20,2 17,3 14 7 18 10 N 20 0 0,0
09.08.2018 00:00:00 15,3 12,3 14,0 16,4 20,6 17,3 16 9 21 11 NNW 23 0 0,0
08.08.2018 23:00:00 15,9 13,0 14,0 17,0 21,0 17,3 18 10 24 13 NNW 19 0 0,0
08.08.2018 22:00:00 16,8 13,4 14,7 18,1 21,4 17,3 16 8 22 12 NW 17 0 0,0
08.08.2018 21:00:00 18,2 13,8 16,7 19,6 21,6 17,3 13 7 22 12 NNW 24 1 0,0
08.08.2018 20:00:00 19,8 13,9 19,8 20,7 21,8 17,3 14 7 25 14 NW 21 6 0,0
08.08.2018 19:00:00 20,4 13,9 19,9 21,5 21,9 17,3 14 7 32 17 W 23 21 0,0

tt = Température de l'air
td = dewpoint
tt 5cm = Température de l'air 5cm
tt -5cm = Température de l'air -5cm
tt -20cm = Température de l'air -20cm
tt -100cm = Température de l'air -100cm
ff = Vitesse du vent
fx = gusts
dd = Direction du vent
vv = visibility
sd = Ensoleillement
rr = Quantités de précipitations

stations d'obs. à proximité